createdAt,value
2023-04-18T00:01:50.327Z,12.23
2023-04-18T00:04:22.577Z,11.18
2023-04-18T00:06:54.821Z,10.35
2023-04-18T00:09:26.920Z,11.80
2023-04-18T00:12:01.645Z,10.82
2023-04-18T00:14:35.366Z,10.88
2023-04-18T00:17:10.488Z,11.75
2023-04-18T00:19:43.393Z,10.73
2023-04-18T00:22:16.895Z,10.00
2023-04-18T00:24:49.881Z,10.70
2023-04-18T00:27:23.245Z,9.60
2023-04-18T00:29:56.323Z,8.90
2023-04-18T00:32:28.538Z,11.70
2023-04-18T00:35:00.781Z,10.60
2023-04-18T00:37:32.808Z,9.73
2023-04-18T00:40:05.984Z,9.50
2023-04-18T00:42:39.352Z,10.60
2023-04-18T00:45:11.954Z,9.35
2023-04-18T00:47:43.939Z,9.82
2023-04-18T00:50:16.258Z,9.82
2023-04-18T00:52:48.310Z,10.13
2023-04-18T00:55:20.658Z,12.32
2023-04-18T00:57:54.020Z,9.07
2023-04-18T01:00:26.121Z,8.95
2023-04-18T01:02:59.386Z,10.40
2023-04-18T01:05:31.495Z,9.32
2023-04-18T01:08:03.570Z,9.82
2023-04-18T01:10:36.078Z,10.00
2023-04-18T01:13:13.948Z,9.50
2023-04-18T01:15:49.036Z,9.43
2023-04-18T01:18:22.583Z,10.05
2023-04-18T01:21:00.003Z,11.23
2023-04-18T01:23:32.138Z,10.15
2023-04-18T01:26:05.867Z,9.25
2023-04-18T01:28:37.873Z,14.85
2023-04-18T01:31:09.902Z,9.73
2023-04-18T01:33:42.205Z,9.48
2023-04-18T01:36:14.569Z,9.73
2023-04-18T01:38:46.693Z,9.68
2023-04-18T01:41:20.037Z,9.00
2023-04-18T01:43:53.651Z,8.63
2023-04-18T01:46:25.683Z,10.40
2023-04-18T01:48:59.070Z,9.75
2023-04-18T01:51:31.401Z,8.90
2023-04-18T01:54:03.590Z,9.98
2023-04-18T01:56:37.214Z,10.95
2023-04-18T01:59:09.167Z,10.80
2023-04-18T02:01:41.164Z,8.77
2023-04-18T02:04:13.344Z,8.98
2023-04-18T02:06:45.704Z,11.15
2023-04-18T02:09:17.667Z,11.35
2023-04-18T02:11:51.065Z,10.40
2023-04-18T02:14:23.082Z,9.55
2023-04-18T02:16:56.474Z,9.82
2023-04-18T02:19:29.838Z,11.02
2023-04-18T02:22:01.864Z,9.80
2023-04-18T02:24:33.869Z,11.80
2023-04-18T02:27:07.200Z,10.57
2023-04-18T02:29:39.210Z,9.68
2023-04-18T02:32:11.250Z,8.77
2023-04-18T02:34:43.206Z,9.48
2023-04-18T02:37:15.173Z,10.45
2023-04-18T02:39:47.130Z,10.18
2023-04-18T02:42:20.985Z,8.65
2023-04-18T02:44:53.097Z,9.30
2023-04-18T02:47:25.046Z,8.73
2023-04-18T02:49:57.476Z,13.65
2023-04-18T02:52:32.398Z,10.30
2023-04-18T02:55:05.032Z,12.98
2023-04-18T02:57:43.524Z,10.55
2023-04-18T03:00:24.899Z,12.82
2023-04-18T03:03:14.427Z,9.75
2023-04-18T03:06:01.067Z,10.68
2023-04-18T03:08:35.055Z,10.98
2023-04-18T03:11:07.031Z,10.15
2023-04-18T03:13:41.176Z,10.43
2023-04-18T03:16:13.581Z,10.85
2023-04-18T03:18:47.930Z,10.82
2023-04-18T03:21:20.997Z,12.68
2023-04-18T03:23:53.356Z,9.55
2023-04-18T03:26:27.128Z,8.18
2023-04-18T03:29:03.172Z,8.60
2023-04-18T03:31:35.198Z,8.27
2023-04-18T03:34:07.266Z,8.32
2023-04-18T03:36:40.145Z,7.57
2023-04-18T03:39:12.159Z,8.60
2023-04-18T03:41:44.109Z,7.55
2023-04-18T03:44:17.481Z,8.65
2023-04-18T03:46:50.477Z,9.43
2023-04-18T03:49:23.111Z,9.07
2023-04-18T03:51:55.558Z,12.30
2023-04-18T03:54:29.367Z,9.98
2023-04-18T03:57:02.587Z,8.63
2023-04-18T03:59:36.110Z,8.55
2023-04-18T04:02:08.238Z,11.00
2023-04-18T04:04:40.349Z,13.40
2023-04-18T04:07:12.864Z,9.13
2023-04-18T04:09:44.899Z,16.20
2023-04-18T04:12:16.965Z,9.63
2023-04-18T04:14:50.515Z,10.40
2023-04-18T04:17:23.008Z,8.77
2023-04-18T04:19:55.216Z,12.57
2023-04-18T04:22:27.784Z,9.25
2023-04-18T04:25:00.882Z,9.23
2023-04-18T04:27:42.791Z,10.40
2023-04-18T04:30:19.045Z,10.13
2023-04-18T04:32:51.298Z,11.13
2023-04-18T04:35:23.548Z,11.18
2023-04-18T04:37:55.946Z,9.38
2023-04-18T04:40:34.458Z,9.60
2023-04-18T04:43:15.624Z,9.55
2023-04-18T04:45:54.137Z,11.60
2023-04-18T04:48:28.794Z,10.83
2023-04-18T04:51:01.583Z,10.38
2023-04-18T04:53:33.592Z,8.80
2023-04-18T04:56:07.573Z,9.55
2023-04-18T04:58:39.693Z,9.88
2023-04-18T05:01:17.030Z,12.70
2023-04-18T05:03:52.839Z,10.23
2023-04-18T05:06:24.983Z,10.63
2023-04-18T05:08:57.627Z,9.65
2023-04-18T05:11:29.618Z,10.20
2023-04-18T05:14:01.541Z,8.98
2023-04-18T05:16:35.055Z,7.65
2023-04-18T05:19:07.102Z,7.75
2023-04-18T05:21:39.401Z,8.20
2023-04-18T05:24:11.693Z,7.78
2023-04-18T05:26:43.850Z,7.35
2023-04-18T05:29:15.804Z,8.48
2023-04-18T05:31:49.158Z,8.38
2023-04-18T05:34:21.102Z,8.75
2023-04-18T05:36:53.177Z,8.25
2023-04-18T05:39:25.132Z,8.02
2023-04-18T05:41:58.431Z,9.05
2023-04-18T05:44:30.668Z,17.83
2023-04-18T05:47:06.625Z,12.48
2023-04-18T05:49:38.663Z,8.27
2023-04-18T05:52:11.461Z,8.38
2023-04-18T05:54:43.434Z,9.63
2023-04-18T05:57:15.516Z,7.82
2023-04-18T05:59:47.470Z,6.43
2023-04-18T06:02:21.282Z,6.22
2023-04-18T06:04:53.488Z,6.35
2023-04-18T06:07:26.016Z,6.07
2023-04-18T06:09:57.937Z,6.20
2023-04-18T06:12:30.079Z,6.18
2023-04-18T06:15:02.239Z,5.55
2023-04-18T06:17:35.777Z,6.22
2023-04-18T06:20:09.755Z,5.97
2023-04-18T06:22:41.781Z,6.63
2023-04-18T06:25:13.789Z,6.05
2023-04-18T06:27:45.873Z,5.95
2023-04-18T06:30:19.861Z,5.90
2023-04-18T06:32:53.281Z,5.88
2023-04-18T06:35:26.639Z,5.35
2023-04-18T06:37:58.856Z,5.88
2023-04-18T06:40:30.836Z,6.00
2023-04-18T06:43:03.008Z,5.47
2023-04-18T06:45:35.355Z,6.22
2023-04-18T06:48:10.741Z,5.80
2023-04-18T06:50:43.854Z,5.35
2023-04-18T06:53:15.979Z,4.78
2023-04-18T06:55:48.182Z,5.28
2023-04-18T06:58:20.252Z,5.18
2023-04-18T07:00:52.964Z,5.50
2023-04-18T07:03:27.010Z,5.28
2023-04-18T07:05:59.099Z,5.30
2023-04-18T07:08:31.307Z,5.13
2023-04-18T07:11:03.306Z,4.82
2023-04-18T07:13:35.316Z,4.10
2023-04-18T07:16:09.455Z,4.72
2023-04-18T07:18:42.826Z,4.40
2023-04-18T07:21:14.842Z,4.43
2023-04-18T07:23:46.827Z,5.07
2023-04-18T07:26:19.088Z,5.75
2023-04-18T07:28:51.089Z,4.72
2023-04-18T07:31:25.772Z,4.93
2023-04-18T07:33:59.310Z,5.65
2023-04-18T07:36:31.576Z,4.93
2023-04-18T07:39:03.816Z,4.68
2023-04-18T07:41:36.009Z,5.05
2023-04-18T07:44:07.955Z,4.43
2023-04-18T07:46:40.204Z,4.53
2023-04-18T07:49:14.003Z,4.75
2023-04-18T07:51:46.138Z,5.03
2023-04-18T07:54:18.120Z,4.75
2023-04-18T07:56:50.110Z,4.70
2023-04-18T07:59:22.210Z,4.30
2023-04-18T08:01:54.230Z,4.45
2023-04-18T08:04:29.952Z,4.22
2023-04-18T08:07:02.463Z,4.65
2023-04-18T08:09:34.445Z,4.10
2023-04-18T08:12:06.797Z,4.63
2023-04-18T08:14:38.757Z,4.45
2023-04-18T08:17:10.789Z,4.43
2023-04-18T08:19:45.628Z,4.57
2023-04-18T08:22:17.616Z,4.60
2023-04-18T08:25:03.285Z,5.70
2023-04-18T08:27:36.802Z,5.07
2023-04-18T08:30:10.248Z,4.40
2023-04-18T08:32:42.875Z,4.53
2023-04-18T08:35:16.368Z,4.63
2023-04-18T08:37:48.340Z,4.47
2023-04-18T08:40:20.507Z,4.95
2023-04-18T08:42:53.892Z,4.90
2023-04-18T08:45:26.436Z,5.10
2023-04-18T08:48:01.581Z,4.10
2023-04-18T08:50:35.270Z,4.07
2023-04-18T08:53:07.819Z,4.35
2023-04-18T08:55:40.651Z,3.80
2023-04-18T08:58:13.756Z,3.67
2023-04-18T09:00:50.296Z,3.80
2023-04-18T09:03:40.100Z,3.60
2023-04-18T09:06:19.067Z,2.80
2023-04-18T09:08:59.273Z,2.80
2023-04-18T09:11:32.453Z,3.38
2023-04-18T09:14:04.467Z,2.63
2023-04-18T09:16:47.047Z,3.20
2023-04-18T09:19:19.220Z,2.55
2023-04-18T09:22:00.858Z,3.38
2023-04-18T09:24:34.399Z,3.00
2023-04-18T09:27:15.403Z,2.67
2023-04-18T09:29:49.647Z,2.58
2023-04-18T09:32:25.209Z,2.75
2023-04-18T09:34:58.636Z,2.83
2023-04-18T09:37:32.067Z,2.70
2023-04-18T09:40:16.708Z,2.78
2023-04-18T09:42:50.762Z,3.20
2023-04-18T09:45:23.800Z,3.00
2023-04-18T09:47:55.926Z,2.80
2023-04-18T09:50:28.058Z,2.90
2023-04-18T09:53:02.199Z,2.95
2023-04-18T09:55:35.214Z,2.55
2023-04-18T09:58:08.842Z,2.30
2023-04-18T10:00:41.206Z,2.40
2023-04-18T10:03:16.691Z,2.60
2023-04-18T10:05:49.635Z,2.67
2023-04-18T10:08:23.380Z,3.53
2023-04-18T10:10:57.960Z,3.92
2023-04-18T10:13:31.021Z,3.60
2023-04-18T10:16:03.575Z,3.72
2023-04-18T10:18:36.445Z,3.65
2023-04-18T10:21:09.463Z,3.72
2023-04-18T10:23:43.159Z,4.05
2023-04-18T10:26:16.100Z,3.38
2023-04-18T10:28:58.604Z,3.95
2023-04-18T10:31:39.475Z,3.50
2023-04-18T10:34:17.495Z,3.50
2023-04-18T10:37:05.885Z,3.60
2023-04-18T10:40:02.014Z,3.60
2023-04-18T10:42:58.350Z,3.33
2023-04-18T10:45:36.280Z,3.58
2023-04-18T10:48:31.342Z,3.58
2023-04-18T10:51:14.158Z,4.00
2023-04-18T10:53:50.036Z,3.65
2023-04-18T10:56:23.734Z,4.28
2023-04-18T10:59:01.314Z,4.25
2023-04-18T11:01:37.858Z,3.42
2023-04-18T11:04:14.264Z,3.20
2023-04-18T11:06:50.271Z,2.90
2023-04-18T11:09:22.675Z,3.78
2023-04-18T11:12:06.508Z,4.32
2023-04-18T11:14:42.220Z,3.80
2023-04-18T11:17:19.003Z,3.53
2023-04-18T11:19:51.818Z,3.63
2023-04-18T11:22:23.788Z,4.10
2023-04-18T11:24:59.121Z,3.38
2023-04-18T11:27:32.540Z,3.95
2023-04-18T11:30:05.639Z,3.90
2023-04-18T11:32:37.639Z,2.92
2023-04-18T11:35:12.196Z,3.70
2023-04-18T11:37:45.964Z,3.15
2023-04-18T11:40:18.092Z,3.17
2023-04-18T11:42:54.617Z,3.03
2023-04-18T11:45:27.465Z,3.25
2023-04-18T11:48:00.986Z,2.72
2023-04-18T11:50:37.179Z,3.10
2023-04-18T11:53:09.317Z,3.45
2023-04-18T11:55:41.322Z,3.35
2023-04-18T11:58:14.898Z,3.17
2023-04-18T12:00:46.851Z,2.85
2023-04-18T12:03:19.087Z,2.85
2023-04-18T12:05:59.853Z,3.35
2023-04-18T12:08:32.735Z,3.13
2023-04-18T12:11:04.948Z,3.17
2023-04-18T12:13:38.297Z,2.75
2023-04-18T12:16:12.366Z,3.05
2023-04-18T12:18:47.249Z,2.47
2023-04-18T12:21:19.747Z,2.63
2023-04-18T12:23:51.832Z,2.50
2023-04-18T12:26:23.959Z,2.80
2023-04-18T12:29:00.640Z,3.13
2023-04-18T12:31:33.451Z,2.25
2023-04-18T12:34:05.547Z,2.47
2023-04-18T12:36:37.483Z,3.22
2023-04-18T12:39:10.263Z,2.70
2023-04-18T12:41:43.461Z,3.28
2023-04-18T12:44:16.884Z,2.85
2023-04-18T12:46:48.874Z,3.30
2023-04-18T12:49:20.921Z,2.58
2023-04-18T12:51:52.844Z,3.25
2023-04-18T12:54:25.737Z,2.97
2023-04-18T12:56:57.702Z,2.50
2023-04-18T12:59:32.292Z,2.65
2023-04-18T13:02:05.128Z,2.28
2023-04-18T13:04:37.393Z,2.47
2023-04-18T13:07:09.456Z,2.53
2023-04-18T13:09:41.489Z,2.40
2023-04-18T13:12:13.591Z,2.70
2023-04-18T13:14:48.122Z,2.72
2023-04-18T13:17:20.148Z,2.63
2023-04-18T13:19:52.311Z,2.60
2023-04-18T13:22:24.373Z,2.92
2023-04-18T13:24:56.330Z,2.95
2023-04-18T13:27:29.013Z,2.78
2023-04-18T13:30:02.800Z,3.47
2023-04-18T13:32:35.434Z,5.05
2023-04-18T13:35:08.868Z,8.60
2023-04-18T13:37:40.929Z,7.88
2023-04-18T13:40:13.665Z,6.00
2023-04-18T13:43:12.961Z,2.85
2023-04-18T13:45:46.577Z,2.88
2023-04-18T13:48:18.557Z,3.00
2023-04-18T13:50:51.250Z,3.80
2023-04-18T13:53:23.429Z,5.43
2023-04-18T13:55:55.869Z,6.32
2023-04-18T13:58:27.981Z,3.20
2023-04-18T14:01:01.822Z,3.42
2023-04-18T14:03:35.419Z,2.47
2023-04-18T14:06:08.894Z,4.75
2023-04-18T14:08:40.983Z,6.28
2023-04-18T14:11:12.977Z,3.45
2023-04-18T14:13:45.018Z,3.75
2023-04-18T14:16:19.350Z,2.75
2023-04-18T14:18:51.437Z,3.20
2023-04-18T14:21:23.994Z,2.80
2023-04-18T14:23:56.416Z,2.40
2023-04-18T14:26:28.352Z,2.92
2023-04-18T14:29:00.744Z,2.40
2023-04-18T14:31:34.254Z,2.50
2023-04-18T14:34:08.400Z,4.25
2023-04-18T14:36:40.448Z,4.45
2023-04-18T14:39:13.246Z,4.15
2023-04-18T14:41:45.992Z,3.92
2023-04-18T14:44:18.377Z,2.40
2023-04-18T14:46:52.184Z,2.95
2023-04-18T14:49:24.249Z,2.70
2023-04-18T14:51:56.255Z,3.78
2023-04-18T14:54:28.966Z,3.15
2023-04-18T14:57:01.905Z,3.47
2023-04-18T14:59:33.891Z,3.15
2023-04-18T15:02:07.403Z,2.83
2023-04-18T15:04:39.703Z,3.05
2023-04-18T15:07:11.953Z,4.90
2023-04-18T15:09:43.994Z,3.85
2023-04-18T15:12:16.018Z,3.03
2023-04-18T15:14:48.029Z,3.38
2023-04-18T15:17:21.685Z,3.72
2023-04-18T15:19:53.745Z,3.60
2023-04-18T15:22:52.519Z,4.40
2023-04-18T15:25:26.133Z,3.83
2023-04-18T15:27:58.622Z,3.08
2023-04-18T15:30:30.740Z,2.90
2023-04-18T15:33:04.484Z,2.92
2023-04-18T15:35:36.510Z,4.63
2023-04-18T15:38:08.595Z,3.63
2023-04-18T15:40:40.888Z,8.48
2023-04-18T15:43:13.869Z,4.35
2023-04-18T15:45:47.054Z,7.70
2023-04-18T15:48:20.817Z,3.28
2023-04-18T15:50:52.895Z,5.13
2023-04-18T15:53:24.880Z,3.70
2023-04-18T15:55:57.342Z,4.25
2023-04-18T15:58:30.428Z,3.92
2023-04-18T16:01:02.951Z,3.97
2023-04-18T16:03:36.533Z,4.45
2023-04-18T16:06:10.086Z,4.22
2023-04-18T16:08:42.037Z,6.80
2023-04-18T16:11:14.961Z,5.00
2023-04-18T16:13:46.914Z,5.03
2023-04-18T16:16:18.945Z,3.80
2023-04-18T16:18:52.394Z,3.75
2023-04-18T16:21:24.382Z,5.97
2023-04-18T16:23:56.402Z,3.90
2023-04-18T16:26:28.977Z,9.07
2023-04-18T16:29:01.315Z,5.85
2023-04-18T16:31:33.662Z,3.88
2023-04-18T16:34:07.052Z,3.30
2023-04-18T16:36:39.086Z,2.92
2023-04-18T16:39:11.287Z,8.85
2023-04-18T16:41:43.242Z,3.40
2023-04-18T16:44:15.531Z,3.75
2023-04-18T16:46:47.671Z,2.78
2023-04-18T16:49:21.051Z,5.43
2023-04-18T16:51:53.004Z,2.92
2023-04-18T16:54:24.924Z,3.67
2023-04-18T16:56:57.178Z,3.00
2023-04-18T16:59:29.116Z,2.63
2023-04-18T17:02:01.182Z,3.38
2023-04-18T17:04:34.703Z,2.88
2023-04-18T17:07:06.980Z,2.70
2023-04-18T17:09:38.946Z,3.30
2023-04-18T17:12:11.038Z,2.85
2023-04-18T17:14:42.981Z,3.20
2023-04-18T17:17:14.999Z,2.90
2023-04-18T17:19:48.342Z,3.72
2023-04-18T17:22:20.484Z,2.92
2023-04-18T17:24:52.569Z,3.08
2023-04-18T17:27:24.542Z,3.60
2023-04-18T17:29:56.608Z,3.00
2023-04-18T17:32:28.656Z,2.92
2023-04-18T17:35:04.820Z,3.88
2023-04-18T17:37:37.047Z,3.15
2023-04-18T17:40:11.428Z,3.25
2023-04-18T17:42:43.458Z,3.47
2023-04-18T17:45:15.502Z,4.13
2023-04-18T17:47:47.659Z,4.22
2023-04-18T17:50:21.329Z,4.05
2023-04-18T17:52:53.364Z,3.65
2023-04-18T17:55:26.617Z,3.67
2023-04-18T17:57:58.655Z,3.95
2023-04-18T18:00:31.078Z,4.68
2023-04-18T18:03:03.685Z,4.35
2023-04-18T18:05:37.221Z,3.60
2023-04-18T18:08:09.246Z,3.85
2023-04-18T18:10:41.355Z,4.07
2023-04-18T18:13:13.491Z,4.60
2023-04-18T18:15:45.619Z,4.13
2023-04-18T18:18:32.162Z,4.28
2023-04-18T18:21:05.537Z,3.78
2023-04-18T18:23:37.482Z,3.95
2023-04-18T18:26:10.299Z,3.30
2023-04-18T18:28:42.351Z,3.90
2023-04-18T18:31:14.367Z,3.88
2023-04-18T18:33:46.398Z,3.67
2023-04-18T18:36:19.806Z,3.60
2023-04-18T18:38:51.881Z,3.80
2023-04-18T18:41:24.212Z,3.35
2023-04-18T18:43:56.896Z,4.05
2023-04-18T18:46:29.095Z,3.67
2023-04-18T18:49:01.099Z,3.80
2023-04-18T18:51:35.592Z,3.00
2023-04-18T18:54:07.704Z,3.50
2023-04-18T18:56:40.115Z,3.30
2023-04-18T18:59:12.230Z,2.85
2023-04-18T19:01:44.405Z,2.88
2023-04-18T19:04:16.611Z,2.72
2023-04-18T19:06:50.568Z,3.10
2023-04-18T19:09:22.557Z,2.42
2023-04-18T19:11:55.118Z,2.67
2023-04-18T19:14:27.150Z,2.70
2023-04-18T19:16:59.077Z,2.20
2023-04-18T19:19:31.062Z,2.22
2023-04-18T19:22:05.956Z,2.85
2023-04-18T19:24:37.974Z,2.88
2023-04-18T19:27:09.998Z,2.80
2023-04-18T19:29:41.981Z,2.63
2023-04-18T19:32:13.963Z,2.88
2023-04-18T19:34:46.045Z,3.38
2023-04-18T19:37:19.399Z,2.40
2023-04-18T19:39:51.429Z,2.45
2023-04-18T19:42:23.443Z,2.92
2023-04-18T19:44:56.512Z,2.63
2023-04-18T19:47:32.208Z,2.85
2023-04-18T19:50:04.913Z,3.22
2023-04-18T19:52:38.376Z,2.60
2023-04-18T19:55:11.483Z,2.40
2023-04-18T19:57:43.968Z,2.55
2023-04-18T20:00:16.746Z,2.53
2023-04-18T20:02:48.916Z,3.05
2023-04-18T20:05:21.298Z,2.70
2023-04-18T20:07:54.870Z,2.50
2023-04-18T20:10:26.832Z,2.53
2023-04-18T20:12:58.788Z,2.85
2023-04-18T20:15:30.895Z,2.72
2023-04-18T20:18:02.951Z,2.40
2023-04-18T20:20:35.748Z,2.95
2023-04-18T20:23:09.223Z,2.60
2023-04-18T20:25:41.625Z,2.90
2023-04-18T20:28:13.589Z,2.42
2023-04-18T20:30:45.963Z,2.55
2023-04-18T20:33:18.101Z,2.42
2023-04-18T20:35:50.057Z,2.65
2023-04-18T20:38:29.484Z,2.67
2023-04-18T20:41:02.259Z,2.30
2023-04-18T20:43:37.230Z,2.45
2023-04-18T20:46:12.863Z,3.25
2023-04-18T20:48:44.877Z,2.70
2023-04-18T20:51:17.646Z,2.40
2023-04-18T20:53:50.991Z,2.70
2023-04-18T20:56:22.950Z,3.05
2023-04-18T20:58:54.983Z,2.63
2023-04-18T21:01:27.413Z,2.33
2023-04-18T21:03:59.589Z,2.85
2023-04-18T21:06:32.926Z,3.20
2023-04-18T21:09:07.436Z,2.75
2023-04-18T21:11:39.425Z,2.97
2023-04-18T21:14:11.395Z,2.67
2023-04-18T21:16:43.747Z,2.90
2023-04-18T21:19:15.759Z,2.50
2023-04-18T21:21:47.751Z,2.80
2023-04-18T21:24:21.122Z,2.70
2023-04-18T21:26:53.052Z,2.50
2023-04-18T21:29:25.057Z,2.45
2023-04-18T21:31:57.112Z,2.20
2023-04-18T21:34:29.428Z,2.22
2023-04-18T21:37:01.481Z,2.30
2023-04-18T21:39:34.846Z,1.92
2023-04-18T21:42:06.817Z,1.90
2023-04-18T21:44:38.755Z,2.20
2023-04-18T21:47:10.698Z,2.30
2023-04-18T21:49:43.053Z,2.08
2023-04-18T21:52:14.980Z,2.00
2023-04-18T21:54:48.406Z,1.80
2023-04-18T21:57:20.398Z,2.50
2023-04-18T21:59:52.453Z,2.30
2023-04-18T22:02:25.504Z,1.65
2023-04-18T22:04:57.577Z,1.92
2023-04-18T22:07:29.625Z,2.10
2023-04-18T22:10:05.833Z,2.10
2023-04-18T22:12:37.824Z,2.10
2023-04-18T22:15:10.532Z,2.25
2023-04-18T22:17:43.136Z,2.00
2023-04-18T22:20:15.140Z,1.95
2023-04-18T22:22:47.073Z,1.83
2023-04-18T22:25:20.489Z,2.15
2023-04-18T22:27:52.448Z,2.92
2023-04-18T22:30:24.655Z,1.90
2023-04-18T22:32:57.800Z,2.10
2023-04-18T22:35:29.864Z,2.10
2023-04-18T22:38:01.859Z,2.17
2023-04-18T22:40:35.344Z,2.33
2023-04-18T22:43:07.322Z,2.53
2023-04-18T22:45:39.277Z,2.17
2023-04-18T22:48:13.328Z,2.22
2023-04-18T22:50:46.272Z,2.08
2023-04-18T22:53:18.321Z,2.03
2023-04-18T22:55:51.695Z,2.28
2023-04-18T22:58:23.634Z,1.98
2023-04-18T23:00:55.879Z,2.00
2023-04-18T23:03:27.947Z,1.85
2023-04-18T23:06:00.980Z,2.20
2023-04-18T23:08:32.894Z,2.78
2023-04-18T23:11:06.384Z,2.20
2023-04-18T23:13:38.344Z,2.28
2023-04-18T23:16:10.464Z,2.08
2023-04-18T23:18:42.458Z,2.35
2023-04-18T23:21:14.498Z,2.22
2023-04-18T23:23:46.463Z,2.40
2023-04-18T23:26:19.870Z,2.03
2023-04-18T23:28:51.884Z,2.15
2023-04-18T23:31:23.987Z,1.83
2023-04-18T23:33:56.539Z,2.38
2023-04-18T23:36:29.780Z,1.90
2023-04-18T23:39:02.145Z,1.88
2023-04-18T23:41:35.660Z,1.85
2023-04-18T23:44:07.555Z,2.05
2023-04-18T23:46:39.586Z,2.05
2023-04-18T23:49:11.548Z,2.08
2023-04-18T23:51:43.539Z,2.00
2023-04-18T23:54:15.721Z,2.45
2023-04-18T23:56:49.265Z,1.85
2023-04-18T23:59:21.226Z,2.38
